Terminal Aerodrome Forecast
Issued by NWS

Home | Current Version | Previous Version | Graphics & Text | Print | Product List | Glossary On
Versions: 1 2 3 4 5 6 7 8 9 10 11 12 13 14 15 16
000
FTUS43 KICT 251500 AAA
TAFRSL
TAF AMD
KRSL 251509Z 2515/2612 05012KT P6SM SKC
     FM251800 12011KT P6SM SCT080
     FM260200 08008KT P6SM VCTS BKN050CB=

USA.gov is the U.S. government's official web portal to all federal, state and local government web resources and services.